createdAt,value
2022-09-14T00:00:05.436Z,0
2022-09-14T00:05:05.452Z,0
2022-09-14T00:10:05.438Z,0
2022-09-14T00:15:05.693Z,0
2022-09-14T00:20:08.756Z,0
2022-09-14T00:25:05.453Z,0
2022-09-14T00:30:05.410Z,0
2022-09-14T00:35:05.411Z,0
2022-09-14T00:40:05.489Z,0
2022-09-14T00:45:05.437Z,0
2022-09-14T00:50:05.595Z,0
2022-09-14T00:55:05.403Z,0
2022-09-14T01:00:05.418Z,0
2022-09-14T01:05:05.448Z,0
2022-09-14T01:10:05.792Z,0
2022-09-14T01:15:05.438Z,0
2022-09-14T01:20:05.533Z,0
2022-09-14T01:25:05.428Z,0
2022-09-14T01:30:05.397Z,0
2022-09-14T01:35:05.407Z,0
2022-09-14T01:40:05.478Z,0
2022-09-14T01:45:05.518Z,0
2022-09-14T01:50:05.942Z,0
2022-09-14T01:55:05.699Z,0
2022-09-14T02:00:05.414Z,0
2022-09-14T02:05:05.413Z,0
2022-09-14T02:10:05.470Z,0
2022-09-14T02:15:05.407Z,0
2022-09-14T02:20:05.439Z,0
2022-09-14T02:25:15.659Z,0
2022-09-14T02:30:05.489Z,0
2022-09-14T02:35:05.499Z,0
2022-09-14T02:40:05.474Z,0
2022-09-14T02:45:05.486Z,0
2022-09-14T02:50:05.483Z,0
2022-09-14T02:55:05.476Z,0
2022-09-14T03:00:05.922Z,0
2022-09-14T03:05:05.460Z,0
2022-09-14T03:10:07.164Z,0
2022-09-14T03:15:05.525Z,0
2022-09-14T03:20:05.545Z,0
2022-09-14T03:25:05.458Z,0
2022-09-14T03:30:05.937Z,0
2022-09-14T03:35:05.481Z,0
2022-09-14T03:40:05.473Z,0
2022-09-14T03:45:05.477Z,0
2022-09-14T03:50:05.488Z,0
2022-09-14T03:55:05.760Z,0
2022-09-14T04:00:05.444Z,0
2022-09-14T04:05:05.962Z,0
2022-09-14T04:10:05.503Z,0
2022-09-14T04:15:05.448Z,0
2022-09-14T04:20:05.468Z,0
2022-09-14T04:25:05.552Z,0
2022-09-14T04:30:05.473Z,0
2022-09-14T04:35:05.570Z,0
2022-09-14T04:40:05.664Z,0
2022-09-14T04:45:05.530Z,0
2022-09-14T04:50:06.477Z,0
2022-09-14T04:55:05.546Z,256
2022-09-14T05:00:05.506Z,258
2022-09-14T05:05:05.596Z,263
2022-09-14T05:10:05.569Z,272
2022-09-14T05:15:05.525Z,268
2022-09-14T05:20:05.503Z,266
2022-09-14T05:25:11.038Z,267
2022-09-14T05:30:05.526Z,266
2022-09-14T05:35:05.553Z,273
2022-09-14T05:40:05.681Z,293
2022-09-14T05:45:05.527Z,315
2022-09-14T05:50:05.607Z,339
2022-09-14T05:55:05.578Z,359
2022-09-14T06:00:05.517Z,354
2022-09-14T06:05:05.703Z,327
2022-09-14T06:10:05.541Z,311
2022-09-14T06:15:05.528Z,315
2022-09-14T06:20:05.542Z,315
2022-09-14T06:25:05.565Z,332
2022-09-14T06:30:05.539Z,324
2022-09-14T06:35:08.204Z,304
2022-09-14T06:40:05.578Z,309
2022-09-14T06:45:05.522Z,282
2022-09-14T06:50:05.529Z,280
2022-09-14T06:55:05.490Z,289
2022-09-14T07:00:05.511Z,333
2022-09-14T07:05:05.521Z,405
2022-09-14T07:10:05.520Z,465
2022-09-14T07:15:06.031Z,389
2022-09-14T07:20:05.514Z,395
2022-09-14T07:25:05.654Z,355
2022-09-14T07:30:05.609Z,377
2022-09-14T07:35:05.551Z,440
2022-09-14T07:40:05.688Z,459
2022-09-14T07:45:05.565Z,531
2022-09-14T07:50:05.535Z,582
2022-09-14T07:55:05.545Z,558
2022-09-14T08:00:05.590Z,469
2022-09-14T08:05:05.553Z,445
2022-09-14T08:10:05.525Z,421
2022-09-14T08:15:05.570Z,433
2022-09-14T08:20:05.556Z,398
2022-09-14T08:25:05.620Z,582
2022-09-14T08:30:05.544Z,767
2022-09-14T08:35:05.556Z,644
2022-09-14T08:40:05.600Z,632
2022-09-14T08:45:09.492Z,598
2022-09-14T08:50:05.889Z,455
2022-09-14T08:55:05.552Z,448
2022-09-14T09:00:05.550Z,534
2022-09-14T09:05:05.574Z,538
2022-09-14T09:10:05.533Z,452
2022-09-14T09:15:05.590Z,447
2022-09-14T09:20:05.557Z,520
